sensor_id;sensor_type;location;lat;lon;timestamp;P1;durP1;ratioP1;P2;durP2;ratioP2
34200;SDS011;20469;55.638;37.670;2024-02-15T00:02:01;12.17;;;5.70;;
34200;SDS011;20469;55.638;37.670;2024-02-15T00:04:30;11.03;;;5.03;;
34200;SDS011;20469;55.638;37.670;2024-02-15T00:06:59;11.70;;;5.30;;
34200;SDS011;20469;55.638;37.670;2024-02-15T00:09:28;9.73;;;5.20;;
34200;SDS011;20469;55.638;37.670;2024-02-15T00:11:56;10.07;;;5.27;;
34200;SDS011;20469;55.638;37.670;2024-02-15T00:14:27;11.03;;;6.07;;
34200;SDS011;20469;55.638;37.670;2024-02-15T00:16:55;9.77;;;5.13;;
34200;SDS011;20469;55.638;37.670;2024-02-15T00:19:23;8.83;;;4.80;;
34200;SDS011;20469;55.638;37.670;2024-02-15T00:21:51;9.03;;;4.93;;
34200;SDS011;20469;55.638;37.670;2024-02-15T00:24:20;9.33;;;4.93;;
34200;SDS011;20469;55.638;37.670;2024-02-15T00:26:48;13.53;;;6.17;;
34200;SDS011;20469;55.638;37.670;2024-02-15T00:29:16;8.80;;;5.17;;
34200;SDS011;20469;55.638;37.670;2024-02-15T00:31:44;10.33;;;4.90;;
34200;SDS011;20469;55.638;37.670;2024-02-15T00:34:14;13.17;;;6.17;;
34200;SDS011;20469;55.638;37.670;2024-02-15T00:36:42;7.63;;;4.53;;
34200;SDS011;20469;55.638;37.670;2024-02-15T00:39:11;10.67;;;5.27;;
34200;SDS011;20469;55.638;37.670;2024-02-15T00:41:40;11.50;;;6.00;;
34200;SDS011;20469;55.638;37.670;2024-02-15T00:44:09;11.17;;;5.70;;
34200;SDS011;20469;55.638;37.670;2024-02-15T00:46:40;10.80;;;5.33;;
34200;SDS011;20469;55.638;37.670;2024-02-15T00:49:08;9.13;;;5.17;;
34200;SDS011;20469;55.638;37.670;2024-02-15T00:51:36;10.83;;;6.03;;
34200;SDS011;20469;55.638;37.670;2024-02-15T00:54:04;12.63;;;5.57;;
34200;SDS011;20469;55.638;37.670;2024-02-15T00:56:39;11.90;;;5.97;;
34200;SDS011;20469;55.638;37.670;2024-02-15T00:59:07;8.20;;;4.50;;
34200;SDS011;20469;55.638;37.670;2024-02-15T01:01:36;10.93;;;5.50;;
34200;SDS011;20469;55.638;37.670;2024-02-15T01:04:05;11.17;;;5.90;;
34200;SDS011;20469;55.638;37.670;2024-02-15T01:06:33;8.20;;;4.93;;
34200;SDS011;20469;55.638;37.670;2024-02-15T01:09:01;9.77;;;5.47;;
34200;SDS011;20469;55.638;37.670;2024-02-15T01:11:30;10.60;;;5.63;;
34200;SDS011;20469;55.638;37.670;2024-02-15T01:13:59;11.90;;;5.63;;
34200;SDS011;20469;55.638;37.670;2024-02-15T01:16:27;10.97;;;5.67;;
34200;SDS011;20469;55.638;37.670;2024-02-15T01:18:55;10.13;;;5.47;;
34200;SDS011;20469;55.638;37.670;2024-02-15T01:21:23;10.07;;;5.53;;
34200;SDS011;20469;55.638;37.670;2024-02-15T01:23:51;11.70;;;5.43;;
34200;SDS011;20469;55.638;37.670;2024-02-15T01:26:20;8.67;;;5.07;;
34200;SDS011;20469;55.638;37.670;2024-02-15T01:28:48;9.63;;;5.23;;
34200;SDS011;20469;55.638;37.670;2024-02-15T01:31:15;9.90;;;5.00;;
34200;SDS011;20469;55.638;37.670;2024-02-15T01:33:44;8.93;;;4.80;;
34200;SDS011;20469;55.638;37.670;2024-02-15T01:36:16;9.57;;;5.50;;
34200;SDS011;20469;55.638;37.670;2024-02-15T01:38:44;11.20;;;5.83;;
34200;SDS011;20469;55.638;37.670;2024-02-15T01:41:12;10.97;;;6.30;;
34200;SDS011;20469;55.638;37.670;2024-02-15T01:43:44;9.60;;;5.20;;
34200;SDS011;20469;55.638;37.670;2024-02-15T01:46:12;10.73;;;4.80;;
34200;SDS011;20469;55.638;37.670;2024-02-15T01:48:41;8.57;;;4.80;;
34200;SDS011;20469;55.638;37.670;2024-02-15T01:51:09;12.67;;;5.77;;
34200;SDS011;20469;55.638;37.670;2024-02-15T01:53:38;9.37;;;5.37;;
34200;SDS011;20469;55.638;37.670;2024-02-15T01:56:06;9.93;;;5.00;;
34200;SDS011;20469;55.638;37.670;2024-02-15T01:58:34;14.43;;;6.73;;
34200;SDS011;20469;55.638;37.670;2024-02-15T02:01:03;10.57;;;5.80;;
34200;SDS011;20469;55.638;37.670;2024-02-15T02:03:32;10.20;;;5.07;;
34200;SDS011;20469;55.638;37.670;2024-02-15T02:06:02;9.53;;;5.67;;
34200;SDS011;20469;55.638;37.670;2024-02-15T02:08:31;13.13;;;6.33;;
34200;SDS011;20469;55.638;37.670;2024-02-15T02:10:59;9.80;;;5.70;;
34200;SDS011;20469;55.638;37.670;2024-02-15T02:13:28;10.70;;;5.63;;
34200;SDS011;20469;55.638;37.670;2024-02-15T02:15:59;8.00;;;4.77;;
34200;SDS011;20469;55.638;37.670;2024-02-15T02:18:27;12.83;;;5.70;;
34200;SDS011;20469;55.638;37.670;2024-02-15T02:20:55;13.00;;;5.57;;
34200;SDS011;20469;55.638;37.670;2024-02-15T02:23:25;13.37;;;6.23;;
34200;SDS011;20469;55.638;37.670;2024-02-15T02:25:54;11.53;;;5.97;;
34200;SDS011;20469;55.638;37.670;2024-02-15T02:28:23;12.80;;;5.37;;
34200;SDS011;20469;55.638;37.670;2024-02-15T02:30:53;10.53;;;5.40;;
34200;SDS011;20469;55.638;37.670;2024-02-15T02:33:21;11.40;;;5.10;;
34200;SDS011;20469;55.638;37.670;2024-02-15T02:35:52;12.53;;;5.37;;
34200;SDS011;20469;55.638;37.670;2024-02-15T02:38:21;10.10;;;5.30;;
34200;SDS011;20469;55.638;37.670;2024-02-15T02:40:52;11.20;;;5.80;;
34200;SDS011;20469;55.638;37.670;2024-02-15T02:43:20;11.53;;;6.03;;
34200;SDS011;20469;55.638;37.670;2024-02-15T02:45:48;8.73;;;4.70;;
34200;SDS011;20469;55.638;37.670;2024-02-15T02:48:16;9.23;;;6.07;;
34200;SDS011;20469;55.638;37.670;2024-02-15T02:50:45;13.53;;;5.63;;
34200;SDS011;20469;55.638;37.670;2024-02-15T02:53:13;9.03;;;4.93;;
34200;SDS011;20469;55.638;37.670;2024-02-15T02:55:43;12.00;;;5.80;;
34200;SDS011;20469;55.638;37.670;2024-02-15T02:58:11;7.83;;;4.33;;
34200;SDS011;20469;55.638;37.670;2024-02-15T03:00:39;9.87;;;5.40;;
34200;SDS011;20469;55.638;37.670;2024-02-15T03:03:07;9.93;;;5.00;;
34200;SDS011;20469;55.638;37.670;2024-02-15T03:05:36;13.67;;;5.90;;
34200;SDS011;20469;55.638;37.670;2024-02-15T03:08:04;12.73;;;5.90;;
34200;SDS011;20469;55.638;37.670;2024-02-15T03:10:32;13.87;;;6.17;;
34200;SDS011;20469;55.638;37.670;2024-02-15T03:13:00;11.43;;;5.93;;
34200;SDS011;20469;55.638;37.670;2024-02-15T03:15:29;11.30;;;5.83;;
34200;SDS011;20469;55.638;37.670;2024-02-15T03:17:59;10.37;;;5.67;;
34200;SDS011;20469;55.638;37.670;2024-02-15T03:20:33;13.30;;;6.13;;
34200;SDS011;20469;55.638;37.670;2024-02-15T03:23:02;13.73;;;6.07;;
34200;SDS011;20469;55.638;37.670;2024-02-15T03:25:30;10.57;;;5.23;;
34200;SDS011;20469;55.638;37.670;2024-02-15T03:27:59;9.07;;;4.97;;
34200;SDS011;20469;55.638;37.670;2024-02-15T03:30:31;11.18;;;6.10;;
34200;SDS011;20469;55.638;37.670;2024-02-15T03:33:01;12.47;;;6.70;;
34200;SDS011;20469;55.638;37.670;2024-02-15T03:35:33;11.20;;;5.93;;
34200;SDS011;20469;55.638;37.670;2024-02-15T03:38:01;12.80;;;4.93;;
34200;SDS011;20469;55.638;37.670;2024-02-15T03:40:30;11.07;;;6.07;;
34200;SDS011;20469;55.638;37.670;2024-02-15T03:42:59;12.13;;;6.33;;
34200;SDS011;20469;55.638;37.670;2024-02-15T03:45:28;10.80;;;6.00;;
34200;SDS011;20469;55.638;37.670;2024-02-15T03:47:55;10.47;;;5.70;;
34200;SDS011;20469;55.638;37.670;2024-02-15T03:50:23;14.33;;;6.60;;
34200;SDS011;20469;55.638;37.670;2024-02-15T03:52:51;11.37;;;6.37;;
34200;SDS011;20469;55.638;37.670;2024-02-15T03:55:20;11.63;;;6.40;;
34200;SDS011;20469;55.638;37.670;2024-02-15T03:57:49;11.77;;;6.40;;
34200;SDS011;20469;55.638;37.670;2024-02-15T04:00:17;11.40;;;5.90;;
34200;SDS011;20469;55.638;37.670;2024-02-15T04:02:49;12.35;;;5.63;;
34200;SDS011;20469;55.638;37.670;2024-02-15T04:05:18;11.40;;;6.50;;
34200;SDS011;20469;55.638;37.670;2024-02-15T04:07:50;7.47;;;4.73;;
34200;SDS011;20469;55.638;37.670;2024-02-15T04:10:20;10.43;;;4.80;;
34200;SDS011;20469;55.638;37.670;2024-02-15T04:13:02;17.05;;;6.57;;
34200;SDS011;20469;55.638;37.670;2024-02-15T04:15:30;12.53;;;5.83;;
34200;SDS011;20469;55.638;37.670;2024-02-15T04:18:00;12.37;;;5.83;;
34200;SDS011;20469;55.638;37.670;2024-02-15T04:20:30;12.47;;;5.07;;
34200;SDS011;20469;55.638;37.670;2024-02-15T04:22:58;12.93;;;6.60;;
34200;SDS011;20469;55.638;37.670;2024-02-15T04:25:27;12.17;;;6.30;;
34200;SDS011;20469;55.638;37.670;2024-02-15T04:27:55;12.17;;;6.47;;
34200;SDS011;20469;55.638;37.670;2024-02-15T04:30:24;10.13;;;5.17;;
34200;SDS011;20469;55.638;37.670;2024-02-15T04:32:52;11.80;;;5.97;;
34200;SDS011;20469;55.638;37.670;2024-02-15T04:35:21;14.87;;;7.10;;
34200;SDS011;20469;55.638;37.670;2024-02-15T04:37:50;12.37;;;6.73;;
34200;SDS011;20469;55.638;37.670;2024-02-15T04:40:19;11.37;;;5.97;;
34200;SDS011;20469;55.638;37.670;2024-02-15T04:42:47;12.10;;;6.00;;
34200;SDS011;20469;55.638;37.670;2024-02-15T04:45:15;14.37;;;7.00;;
34200;SDS011;20469;55.638;37.670;2024-02-15T04:48:03;12.60;;;6.20;;
34200;SDS011;20469;55.638;37.670;2024-02-15T04:50:32;13.53;;;6.87;;
34200;SDS011;20469;55.638;37.670;2024-02-15T04:53:00;10.50;;;5.97;;
34200;SDS011;20469;55.638;37.670;2024-02-15T04:55:28;9.17;;;4.70;;
34200;SDS011;20469;55.638;37.670;2024-02-15T04:57:57;11.47;;;6.17;;
34200;SDS011;20469;55.638;37.670;2024-02-15T05:00:26;12.33;;;6.63;;
34200;SDS011;20469;55.638;37.670;2024-02-15T05:02:55;14.70;;;6.77;;
34200;SDS011;20469;55.638;37.670;2024-02-15T05:05:23;11.07;;;5.93;;
34200;SDS011;20469;55.638;37.670;2024-02-15T05:07:51;12.10;;;5.40;;
34200;SDS011;20469;55.638;37.670;2024-02-15T05:10:19;11.87;;;6.10;;
34200;SDS011;20469;55.638;37.670;2024-02-15T05:12:47;10.27;;;6.03;;
34200;SDS011;20469;55.638;37.670;2024-02-15T05:15:15;12.80;;;6.00;;
34200;SDS011;20469;55.638;37.670;2024-02-15T05:17:45;12.90;;;6.50;;
34200;SDS011;20469;55.638;37.670;2024-02-15T05:20:15;12.77;;;6.33;;
34200;SDS011;20469;55.638;37.670;2024-02-15T05:22:42;12.67;;;5.40;;
34200;SDS011;20469;55.638;37.670;2024-02-15T05:25:18;10.27;;;5.37;;
34200;SDS011;20469;55.638;37.670;2024-02-15T05:27:53;10.50;;;5.30;;
34200;SDS011;20469;55.638;37.670;2024-02-15T05:30:23;10.27;;;5.73;;
34200;SDS011;20469;55.638;37.670;2024-02-15T05:32:51;11.77;;;5.47;;
34200;SDS011;20469;55.638;37.670;2024-02-15T05:35:22;13.73;;;6.70;;
34200;SDS011;20469;55.638;37.670;2024-02-15T05:37:52;14.23;;;6.87;;
34200;SDS011;20469;55.638;37.670;2024-02-15T05:40:20;13.40;;;6.17;;
34200;SDS011;20469;55.638;37.670;2024-02-15T05:42:48;13.10;;;6.20;;
34200;SDS011;20469;55.638;37.670;2024-02-15T05:45:28;15.00;;;6.37;;
34200;SDS011;20469;55.638;37.670;2024-02-15T05:48:00;15.43;;;7.40;;
34200;SDS011;20469;55.638;37.670;2024-02-15T05:50:28;9.97;;;5.47;;
34200;SDS011;20469;55.638;37.670;2024-02-15T05:52:58;13.53;;;5.67;;
34200;SDS011;20469;55.638;37.670;2024-02-15T05:55:28;10.50;;;5.23;;
34200;SDS011;20469;55.638;37.670;2024-02-15T05:57:57;11.43;;;5.50;;
34200;SDS011;20469;55.638;37.670;2024-02-15T06:00:25;12.70;;;6.67;;
34200;SDS011;20469;55.638;37.670;2024-02-15T06:02:53;9.20;;;5.00;;
34200;SDS011;20469;55.638;37.670;2024-02-15T06:05:22;12.70;;;6.87;;
34200;SDS011;20469;55.638;37.670;2024-02-15T06:07:50;14.33;;;6.43;;
34200;SDS011;20469;55.638;37.670;2024-02-15T06:10:18;13.43;;;5.60;;
34200;SDS011;20469;55.638;37.670;2024-02-15T06:12:46;11.27;;;6.00;;
34200;SDS011;20469;55.638;37.670;2024-02-15T06:15:14;12.93;;;7.30;;
34200;SDS011;20469;55.638;37.670;2024-02-15T06:17:43;11.07;;;5.67;;
34200;SDS011;20469;55.638;37.670;2024-02-15T06:20:12;15.63;;;7.23;;
34200;SDS011;20469;55.638;37.670;2024-02-15T06:22:50;10.57;;;5.97;;
34200;SDS011;20469;55.638;37.670;2024-02-15T06:25:18;14.63;;;7.00;;
34200;SDS011;20469;55.638;37.670;2024-02-15T06:27:48;11.67;;;5.80;;
34200;SDS011;20469;55.638;37.670;2024-02-15T06:30:18;10.03;;;5.80;;
34200;SDS011;20469;55.638;37.670;2024-02-15T06:33:04;11.57;;;5.63;;
34200;SDS011;20469;55.638;37.670;2024-02-15T06:36:10;13.37;;;6.77;;
34200;SDS011;20469;55.638;37.670;2024-02-15T06:38:57;9.23;;;5.30;;
34200;SDS011;20469;55.638;37.670;2024-02-15T06:41:43;16.13;;;6.63;;
34200;SDS011;20469;55.638;37.670;2024-02-15T06:44:11;11.80;;;5.93;;
34200;SDS011;20469;55.638;37.670;2024-02-15T06:46:42;11.67;;;5.23;;
34200;SDS011;20469;55.638;37.670;2024-02-15T06:49:10;13.13;;;6.67;;
34200;SDS011;20469;55.638;37.670;2024-02-15T06:51:38;14.57;;;7.23;;
34200;SDS011;20469;55.638;37.670;2024-02-15T06:54:06;12.97;;;6.37;;
34200;SDS011;20469;55.638;37.670;2024-02-15T06:56:37;16.47;;;7.80;;
34200;SDS011;20469;55.638;37.670;2024-02-15T06:59:06;14.98;;;6.07;;
34200;SDS011;20469;55.638;37.670;2024-02-15T07:01:34;13.20;;;7.27;;
34200;SDS011;20469;55.638;37.670;2024-02-15T07:04:02;13.30;;;7.00;;
34200;SDS011;20469;55.638;37.670;2024-02-15T07:06:30;12.80;;;7.47;;
34200;SDS011;20469;55.638;37.670;2024-02-15T07:08:58;12.10;;;6.10;;
34200;SDS011;20469;55.638;37.670;2024-02-15T07:11:26;13.70;;;6.77;;
34200;SDS011;20469;55.638;37.670;2024-02-15T07:13:54;11.77;;;6.03;;
34200;SDS011;20469;55.638;37.670;2024-02-15T07:16:23;16.33;;;6.73;;
34200;SDS011;20469;55.638;37.670;2024-02-15T07:18:51;16.07;;;7.30;;
34200;SDS011;20469;55.638;37.670;2024-02-15T07:21:20;16.50;;;7.97;;
34200;SDS011;20469;55.638;37.670;2024-02-15T07:23:55;14.03;;;7.17;;
34200;SDS011;20469;55.638;37.670;2024-02-15T07:26:24;18.20;;;8.27;;
34200;SDS011;20469;55.638;37.670;2024-02-15T07:28:52;18.60;;;7.60;;
34200;SDS011;20469;55.638;37.670;2024-02-15T07:31:21;16.13;;;7.20;;
34200;SDS011;20469;55.638;37.670;2024-02-15T07:33:50;16.03;;;7.40;;
34200;SDS011;20469;55.638;37.670;2024-02-15T07:36:22;15.30;;;6.83;;
34200;SDS011;20469;55.638;37.670;2024-02-15T07:38:50;15.50;;;6.70;;
34200;SDS011;20469;55.638;37.670;2024-02-15T07:41:18;11.30;;;5.23;;
34200;SDS011;20469;55.638;37.670;2024-02-15T07:43:49;16.67;;;8.07;;
34200;SDS011;20469;55.638;37.670;2024-02-15T07:46:20;14.37;;;6.60;;
34200;SDS011;20469;55.638;37.670;2024-02-15T07:48:48;19.13;;;8.03;;
34200;SDS011;20469;55.638;37.670;2024-02-15T07:51:16;12.27;;;7.37;;
34200;SDS011;20469;55.638;37.670;2024-02-15T07:53:48;14.43;;;6.38;;
34200;SDS011;20469;55.638;37.670;2024-02-15T07:56:16;19.57;;;7.43;;
34200;SDS011;20469;55.638;37.670;2024-02-15T07:58:47;21.47;;;8.00;;
34200;SDS011;20469;55.638;37.670;2024-02-15T08:01:20;18.73;;;7.60;;
34200;SDS011;20469;55.638;37.670;2024-02-15T08:03:52;13.87;;;7.43;;
34200;SDS011;20469;55.638;37.670;2024-02-15T08:06:21;15.33;;;7.10;;
34200;SDS011;20469;55.638;37.670;2024-02-15T08:08:55;14.67;;;7.03;;
34200;SDS011;20469;55.638;37.670;2024-02-15T08:11:23;16.07;;;7.37;;
34200;SDS011;20469;55.638;37.670;2024-02-15T08:13:53;14.30;;;6.90;;
34200;SDS011;20469;55.638;37.670;2024-02-15T08:16:25;10.88;;;5.68;;
34200;SDS011;20469;55.638;37.670;2024-02-15T08:18:56;12.70;;;6.90;;
34200;SDS011;20469;55.638;37.670;2024-02-15T08:21:26;16.07;;;7.37;;
34200;SDS011;20469;55.638;37.670;2024-02-15T08:23:56;19.38;;;7.82;;
34200;SDS011;20469;55.638;37.670;2024-02-15T08:26:35;15.60;;;7.37;;
34200;SDS011;20469;55.638;37.670;2024-02-15T08:29:04;18.00;;;7.33;;
34200;SDS011;20469;55.638;37.670;2024-02-15T08:31:32;14.53;;;7.17;;
34200;SDS011;20469;55.638;37.670;2024-02-15T08:34:03;13.03;;;6.77;;
34200;SDS011;20469;55.638;37.670;2024-02-15T08:36:37;18.47;;;7.20;;
34200;SDS011;20469;55.638;37.670;2024-02-15T08:39:06;12.10;;;7.23;;
34200;SDS011;20469;55.638;37.670;2024-02-15T08:41:39;15.75;;;7.10;;
34200;SDS011;20469;55.638;37.670;2024-02-15T08:44:07;13.67;;;7.00;;
34200;SDS011;20469;55.638;37.670;2024-02-15T08:46:38;11.80;;;5.32;;
34200;SDS011;20469;55.638;37.670;2024-02-15T08:49:06;19.60;;;7.60;;
34200;SDS011;20469;55.638;37.670;2024-02-15T08:51:34;16.20;;;7.87;;
34200;SDS011;20469;55.638;37.670;2024-02-15T08:54:04;11.17;;;6.43;;
34200;SDS011;20469;55.638;37.670;2024-02-15T08:56:31;13.23;;;6.27;;
34200;SDS011;20469;55.638;37.670;2024-02-15T08:59:00;15.47;;;6.73;;
34200;SDS011;20469;55.638;37.670;2024-02-15T09:01:31;13.97;;;7.07;;
34200;SDS011;20469;55.638;37.670;2024-02-15T09:04:00;14.63;;;6.97;;
34200;SDS011;20469;55.638;37.670;2024-02-15T09:06:28;9.67;;;5.67;;
34200;SDS011;20469;55.638;37.670;2024-02-15T09:08:57;14.77;;;7.30;;
34200;SDS011;20469;55.638;37.670;2024-02-15T09:11:29;16.00;;;7.43;;
34200;SDS011;20469;55.638;37.670;2024-02-15T09:14:00;11.20;;;5.65;;
34200;SDS011;20469;55.638;37.670;2024-02-15T09:16:32;14.83;;;6.90;;
34200;SDS011;20469;55.638;37.670;2024-02-15T09:19:00;10.77;;;5.93;;
34200;SDS011;20469;55.638;37.670;2024-02-15T09:21:29;13.53;;;6.47;;
34200;SDS011;20469;55.638;37.670;2024-02-15T09:23:56;13.73;;;6.87;;
34200;SDS011;20469;55.638;37.670;2024-02-15T09:26:24;13.10;;;6.70;;
34200;SDS011;20469;55.638;37.670;2024-02-15T09:28:52;16.43;;;8.00;;
34200;SDS011;20469;55.638;37.670;2024-02-15T09:31:20;16.50;;;8.33;;
34200;SDS011;20469;55.638;37.670;2024-02-15T09:33:48;15.20;;;7.00;;
34200;SDS011;20469;55.638;37.670;2024-02-15T09:36:15;14.50;;;7.63;;
34200;SDS011;20469;55.638;37.670;2024-02-15T09:38:44;15.63;;;7.43;;
34200;SDS011;20469;55.638;37.670;2024-02-15T09:41:13;15.43;;;7.23;;
34200;SDS011;20469;55.638;37.670;2024-02-15T09:43:41;15.87;;;6.50;;
34200;SDS011;20469;55.638;37.670;2024-02-15T09:46:10;14.90;;;8.27;;
34200;SDS011;20469;55.638;37.670;2024-02-15T09:48:37;13.23;;;7.27;;
34200;SDS011;20469;55.638;37.670;2024-02-15T09:51:07;12.83;;;7.60;;
34200;SDS011;20469;55.638;37.670;2024-02-15T09:53:39;13.98;;;7.88;;
34200;SDS011;20469;55.638;37.670;2024-02-15T09:56:07;14.83;;;7.43;;
34200;SDS011;20469;55.638;37.670;2024-02-15T09:58:36;8.80;;;5.20;;
34200;SDS011;20469;55.638;37.670;2024-02-15T10:01:08;13.67;;;7.03;;
34200;SDS011;20469;55.638;37.670;2024-02-15T10:03:54;11.70;;;6.13;;
34200;SDS011;20469;55.638;37.670;2024-02-15T10:06:24;13.57;;;5.70;;
34200;SDS011;20469;55.638;37.670;2024-02-15T10:08:53;15.57;;;7.33;;
34200;SDS011;20469;55.638;37.670;2024-02-15T10:11:23;15.33;;;7.50;;
34200;SDS011;20469;55.638;37.670;2024-02-15T10:13:52;13.90;;;7.47;;
34200;SDS011;20469;55.638;37.670;2024-02-15T10:16:20;18.07;;;7.20;;
34200;SDS011;20469;55.638;37.670;2024-02-15T10:18:52;17.23;;;7.93;;
34200;SDS011;20469;55.638;37.670;2024-02-15T10:21:23;13.73;;;6.43;;
34200;SDS011;20469;55.638;37.670;2024-02-15T10:24:05;15.27;;;7.95;;
34200;SDS011;20469;55.638;37.670;2024-02-15T10:26:35;15.57;;;7.73;;
34200;SDS011;20469;55.638;37.670;2024-02-15T10:29:07;13.37;;;6.87;;
34200;SDS011;20469;55.638;37.670;2024-02-15T10:31:37;12.83;;;7.30;;
34200;SDS011;20469;55.638;37.670;2024-02-15T10:34:13;13.07;;;7.33;;
34200;SDS011;20469;55.638;37.670;2024-02-15T10:36:42;12.73;;;6.90;;
34200;SDS011;20469;55.638;37.670;2024-02-15T10:39:10;12.37;;;6.40;;
34200;SDS011;20469;55.638;37.670;2024-02-15T10:41:47;16.63;;;8.07;;
34200;SDS011;20469;55.638;37.670;2024-02-15T10:44:19;14.52;;;7.25;;
34200;SDS011;20469;55.638;37.670;2024-02-15T10:46:48;13.03;;;5.77;;
34200;SDS011;20469;55.638;37.670;2024-02-15T10:51:57;14.87;;;7.63;;
34200;SDS011;20469;55.638;37.670;2024-02-15T10:54:41;14.83;;;7.07;;
34200;SDS011;20469;55.638;37.670;2024-02-15T10:57:19;14.43;;;7.23;;
34200;SDS011;20469;55.638;37.670;2024-02-15T10:59:57;14.33;;;7.60;;
34200;SDS011;20469;55.638;37.670;2024-02-15T11:02:28;16.07;;;7.83;;
34200;SDS011;20469;55.638;37.670;2024-02-15T11:05:07;16.07;;;8.37;;
34200;SDS011;20469;55.638;37.670;2024-02-15T11:07:41;15.03;;;7.63;;
34200;SDS011;20469;55.638;37.670;2024-02-15T11:10:15;15.53;;;8.57;;
34200;SDS011;20469;55.638;37.670;2024-02-15T11:12:43;14.40;;;8.67;;
34200;SDS011;20469;55.638;37.670;2024-02-15T11:18:03;15.20;;;8.73;;
34200;SDS011;20469;55.638;37.670;2024-02-15T11:23:00;17.90;;;8.27;;
34200;SDS011;20469;55.638;37.670;2024-02-15T11:25:34;17.67;;;8.27;;
34200;SDS011;20469;55.638;37.670;2024-02-15T11:28:46;19.10;;;8.67;;
34200;SDS011;20469;55.638;37.670;2024-02-15T11:30:54;15.90;;;8.47;;
34200;SDS011;20469;55.638;37.670;2024-02-15T11:33:29;13.60;;;7.43;;
34200;SDS011;20469;55.638;37.670;2024-02-15T11:38:34;14.03;;;8.00;;
34200;SDS011;20469;55.638;37.670;2024-02-15T11:41:03;14.90;;;8.27;;
34200;SDS011;20469;55.638;37.670;2024-02-15T11:43:51;15.97;;;7.93;;
34200;SDS011;20469;55.638;37.670;2024-02-15T11:46:24;13.60;;;7.87;;
34200;SDS011;20469;55.638;37.670;2024-02-15T11:48:53;15.90;;;7.80;;
34200;SDS011;20469;55.638;37.670;2024-02-15T11:51:35;16.20;;;8.67;;
34200;SDS011;20469;55.638;37.670;2024-02-15T11:59:16;16.07;;;7.97;;
34200;SDS011;20469;55.638;37.670;2024-02-15T12:01:58;16.80;;;8.10;;
34200;SDS011;20469;55.638;37.670;2024-02-15T12:04:45;17.30;;;8.67;;
34200;SDS011;20469;55.638;37.670;2024-02-15T12:07:32;13.80;;;8.10;;
34200;SDS011;20469;55.638;37.670;2024-02-15T12:10:19;24.57;;;11.73;;
34200;SDS011;20469;55.638;37.670;2024-02-15T12:13:06;16.87;;;8.57;;
34200;SDS011;20469;55.638;37.670;2024-02-15T12:16:10;14.57;;;7.83;;
34200;SDS011;20469;55.638;37.670;2024-02-15T12:19:01;14.27;;;6.07;;
34200;SDS011;20469;55.638;37.670;2024-02-15T12:21:30;14.90;;;7.53;;
34200;SDS011;20469;55.638;37.670;2024-02-15T12:24:00;13.70;;;7.67;;
34200;SDS011;20469;55.638;37.670;2024-02-15T12:26:28;15.93;;;8.10;;
34200;SDS011;20469;55.638;37.670;2024-02-15T12:29:08;15.93;;;8.00;;
34200;SDS011;20469;55.638;37.670;2024-02-15T12:31:41;16.20;;;8.27;;
34200;SDS011;20469;55.638;37.670;2024-02-15T12:34:11;16.87;;;8.87;;
34200;SDS011;20469;55.638;37.670;2024-02-15T12:36:40;14.50;;;7.47;;
34200;SDS011;20469;55.638;37.670;2024-02-15T12:39:09;16.23;;;8.30;;
34200;SDS011;20469;55.638;37.670;2024-02-15T12:41:38;13.43;;;7.93;;
34200;SDS011;20469;55.638;37.670;2024-02-15T12:44:08;15.03;;;7.50;;
34200;SDS011;20469;55.638;37.670;2024-02-15T12:46:37;13.33;;;6.93;;
34200;SDS011;20469;55.638;37.670;2024-02-15T12:51:51;18.37;;;7.97;;
34200;SDS011;20469;55.638;37.670;2024-02-15T12:54:20;14.20;;;7.85;;
34200;SDS011;20469;55.638;37.670;2024-02-15T12:56:48;16.30;;;8.17;;
34200;SDS011;20469;55.638;37.670;2024-02-15T12:59:16;15.43;;;8.13;;
34200;SDS011;20469;55.638;37.670;2024-02-15T13:01:45;16.30;;;8.30;;
34200;SDS011;20469;55.638;37.670;2024-02-15T13:04:23;16.83;;;8.10;;
34200;SDS011;20469;55.638;37.670;2024-02-15T13:06:55;16.50;;;8.00;;
34200;SDS011;20469;55.638;37.670;2024-02-15T13:09:23;16.07;;;8.03;;
34200;SDS011;20469;55.638;37.670;2024-02-15T13:11:51;14.70;;;7.70;;
34200;SDS011;20469;55.638;37.670;2024-02-15T13:14:20;15.87;;;8.00;;
34200;SDS011;20469;55.638;37.670;2024-02-15T13:16:48;17.97;;;8.63;;
34200;SDS011;20469;55.638;37.670;2024-02-15T13:19:16;17.30;;;8.17;;
34200;SDS011;20469;55.638;37.670;2024-02-15T13:21:44;17.57;;;8.17;;
34200;SDS011;20469;55.638;37.670;2024-02-15T13:24:19;17.33;;;8.97;;
34200;SDS011;20469;55.638;37.670;2024-02-15T13:26:52;14.93;;;7.33;;
34200;SDS011;20469;55.638;37.670;2024-02-15T13:29:24;16.30;;;8.27;;
34200;SDS011;20469;55.638;37.670;2024-02-15T13:31:54;17.83;;;8.03;;
34200;SDS011;20469;55.638;37.670;2024-02-15T13:34:22;16.23;;;8.57;;
34200;SDS011;20469;55.638;37.670;2024-02-15T13:36:51;14.63;;;8.07;;
34200;SDS011;20469;55.638;37.670;2024-02-15T13:39:20;18.27;;;9.07;;
34200;SDS011;20469;55.638;37.670;2024-02-15T13:41:55;15.10;;;7.90;;
34200;SDS011;20469;55.638;37.670;2024-02-15T13:44:24;12.07;;;7.17;;
34200;SDS011;20469;55.638;37.670;2024-02-15T13:46:52;14.90;;;7.73;;
34200;SDS011;20469;55.638;37.670;2024-02-15T13:49:23;13.37;;;7.50;;
34200;SDS011;20469;55.638;37.670;2024-02-15T13:51:58;15.60;;;8.40;;
34200;SDS011;20469;55.638;37.670;2024-02-15T13:54:30;13.90;;;7.88;;
34200;SDS011;20469;55.638;37.670;2024-02-15T13:56:58;17.33;;;8.27;;
34200;SDS011;20469;55.638;37.670;2024-02-15T13:59:26;18.70;;;8.37;;
34200;SDS011;20469;55.638;37.670;2024-02-15T14:01:55;18.07;;;8.87;;
34200;SDS011;20469;55.638;37.670;2024-02-15T14:04:23;14.77;;;7.33;;
34200;SDS011;20469;55.638;37.670;2024-02-15T14:06:52;15.27;;;7.93;;
34200;SDS011;20469;55.638;37.670;2024-02-15T14:09:21;14.77;;;8.33;;
34200;SDS011;20469;55.638;37.670;2024-02-15T14:11:52;12.40;;;7.03;;
34200;SDS011;20469;55.638;37.670;2024-02-15T14:14:21;18.30;;;8.23;;
34200;SDS011;20469;55.638;37.670;2024-02-15T14:16:48;17.73;;;8.63;;
34200;SDS011;20469;55.638;37.670;2024-02-15T14:19:16;15.53;;;8.50;;
34200;SDS011;20469;55.638;37.670;2024-02-15T14:21:45;14.97;;;7.17;;
34200;SDS011;20469;55.638;37.670;2024-02-15T14:24:13;17.23;;;8.80;;
34200;SDS011;20469;55.638;37.670;2024-02-15T14:26:42;15.07;;;8.07;;
34200;SDS011;20469;55.638;37.670;2024-02-15T14:29:10;16.70;;;8.30;;
34200;SDS011;20469;55.638;37.670;2024-02-15T14:31:40;17.33;;;8.50;;
34200;SDS011;20469;55.638;37.670;2024-02-15T14:34:27;17.37;;;8.37;;
34200;SDS011;20469;55.638;37.670;2024-02-15T14:36:54;16.43;;;8.57;;
34200;SDS011;20469;55.638;37.670;2024-02-15T14:39:32;15.90;;;8.80;;
34200;SDS011;20469;55.638;37.670;2024-02-15T14:42:03;14.53;;;7.13;;
34200;SDS011;20469;55.638;37.670;2024-02-15T14:44:35;16.65;;;8.48;;
34200;SDS011;20469;55.638;37.670;2024-02-15T14:47:03;17.50;;;8.83;;
34200;SDS011;20469;55.638;37.670;2024-02-15T14:49:31;15.57;;;8.00;;
34200;SDS011;20469;55.638;37.670;2024-02-15T14:52:09;16.30;;;8.63;;
34200;SDS011;20469;55.638;37.670;2024-02-15T14:54:39;13.77;;;7.00;;
34200;SDS011;20469;55.638;37.670;2024-02-15T14:57:07;17.50;;;9.23;;
34200;SDS011;20469;55.638;37.670;2024-02-15T14:59:35;14.53;;;8.37;;
34200;SDS011;20469;55.638;37.670;2024-02-15T15:02:05;16.93;;;8.33;;